Time;durP1;ratioP1;P1;durP2;ratioP2;P2;SDS_P1;SDS_P2;PMS_P1;PMS_P2;Temp;Humidity;BMP_temperature;BMP_pressure;BME280_temperature;BME280_humidity;BME280_pressure;Samples;Min_cycle;Max_cycle;Signal;HPM_P1;HPM_P2
2021/05/22 00:01:25;;;;;;;7.20;3.70;;;;;;;9.47;71.66;99463.27;1742430;82;21060;-64
2021/05/22 00:03:54;;;;;;;;;;;;;;;9.43;71.78;99454.02;1748004;82;21173;-64
2021/05/22 00:06:19;;;;;;;5.95;3.65;;;;;;;9.36;72.14;99465.70;1742255;82;20142;-63
2021/05/22 00:08:46;;;;;;;7.90;3.55;;;;;;;9.23;72.33;99460.80;1740659;82;21596;-63
2021/05/22 00:11:12;;;;;;;6.30;3.85;;;;;;;9.28;72.21;99464.90;1741063;82;21014;-64
2021/05/22 00:13:39;;;;;;;5.87;3.75;;;;;;;9.33;72.02;99463.53;1740568;82;21061;-64
2021/05/22 00:16:05;;;;;;;7.87;3.65;;;;;;;9.29;72.18;99459.18;1744406;82;21008;-64
2021/05/22 00:18:32;;;;;;;;;;;;;;;9.24;72.52;99465.16;1745571;82;21455;-64
2021/05/22 00:20:58;;;;;;;6.45;3.40;;;;;;;9.17;72.61;99473.58;1741619;82;20158;-64
2021/05/22 00:23:24;;;;;;;;;;;;;;;9.09;72.94;99466.48;1722456;82;21093;-64
2021/05/22 00:25:50;;;;;;;7.65;3.77;;;;;;;9.16;72.88;99469.22;1739185;82;20180;-64
2021/05/22 00:28:17;;;;;;;7.17;3.80;;;;;;;9.15;72.91;99473.01;1740650;82;21101;-63
2021/05/22 00:30:43;;;;;;;7.37;4.35;;;;;;;9.09;73.09;99467.84;1741160;82;21051;-64
2021/05/22 00:33:10;;;;;;;9.53;3.95;;;;;;;9.02;73.18;99466.75;1742222;81;21117;-64
2021/05/22 00:35:36;;;;;;;6.08;3.90;;;;;;;8.95;73.26;99469.72;1741204;82;21033;-64
2021/05/22 00:38:02;;;;;;;5.28;3.60;;;;;;;8.98;73.15;99468.36;1740667;82;21137;-64
2021/05/22 00:40:29;;;;;;;8.18;3.75;;;;;;;9.03;73.35;99469.73;1740607;82;21089;-64
2021/05/22 00:42:56;;;;;;;;;;;;;;;8.99;73.58;99470.82;1745155;82;21096;-63
2021/05/22 00:45:23;;;;;;;8.13;3.67;;;;;;;8.95;73.59;99472.97;1732445;82;20173;-63
2021/05/22 00:47:52;;;;;;;8.38;3.65;;;;;;;8.83;73.85;99464.23;1743639;82;21113;-64
2021/05/22 00:50:27;;;;;;;6.42;3.70;;;;;;;8.85;73.66;99463.44;1740781;82;21010;-63
2021/05/22 00:52:54;;;;;;;6.35;3.40;;;;;;;8.91;73.45;99458.30;1743961;82;21069;-63
2021/05/22 00:55:22;;;;;;;7.25;3.42;;;;;;;8.91;73.66;99454.22;1739982;82;21081;-64
2021/05/22 00:57:48;;;;;;;6.72;3.77;;;;;;;8.86;73.69;99455.55;1742308;82;21143;-64
2021/05/22 01:00:17;;;;;;;;;;;;;;;8.83;73.81;99456.09;1750952;82;21076;-64
2021/05/22 01:02:44;;;;;;;4.70;3.27;;;;;;;8.86;73.69;99462.34;1748014;82;20164;-64
2021/05/22 01:05:11;;;;;;;5.55;3.40;;;;;;;8.91;73.40;99464.55;1742856;82;21618;-64
2021/05/22 01:07:37;;;;;;;9.13;3.55;;;;;;;8.89;73.35;99461.83;1747509;82;21092;-64
2021/05/22 01:10:06;;;;;;;6.28;3.50;;;;;;;8.82;73.31;99461.27;1748700;82;21061;-63
2021/05/22 01:12:36;;;;;;;6.35;3.08;;;;;;;8.74;73.47;99463.95;1746891;81;21092;-64
2021/05/22 01:15:12;;;;;;;6.70;4.10;;;;;;;8.74;73.38;99459.06;1742157;82;21084;-63
2021/05/22 01:17:45;;;;;;;9.83;3.90;;;;;;;8.79;73.32;99461.77;1731087;82;21112;-64
2021/05/22 01:20:32;;;;;;;9.03;4.22;;;;;;;8.75;73.72;99462.84;1747122;82;21044;-64
2021/05/22 01:23:05;;;;;;;10.20;4.50;;;;;;;8.68;74.23;99470.42;1703692;82;21521;-64
2021/05/22 01:25:40;;;;;;;7.40;5.03;;;;;;;8.62;74.67;99472.84;1719912;82;20997;-64
2021/05/22 01:28:10;;;;;;;8.70;4.70;;;;;;;8.64;74.72;99474.77;1745864;81;21084;-64
2021/05/22 01:30:37;;;;;;;10.65;5.15;;;;;;;8.66;74.76;99464.45;1748279;82;21005;-63
2021/05/22 01:33:04;;;;;;;;;;;;;;;8.51;75.08;99463.03;1746235;82;21071;-63
2021/05/22 01:35:30;;;;;;;9.78;4.85;;;;;;;8.54;75.50;99477.42;1720426;82;20185;-64
2021/05/22 01:37:57;;;;;;;;;;;;;;;8.45;75.84;99477.13;1755254;82;21639;-63
2021/05/22 01:40:23;;;;;;;11.10;5.58;;;;;;;8.50;75.69;99471.70;1741019;82;20158;-63
2021/05/22 01:42:50;;;;;;;8.43;4.95;;;;;;;8.48;75.77;99478.48;1753781;82;21591;-63
2021/05/22 01:45:21;;;;;;;8.88;5.33;;;;;;;8.42;76.20;99477.66;1722294;82;21039;-64
2021/05/22 01:47:48;;;;;;;10.35;5.83;;;;;;;8.37;76.51;99476.80;1750246;81;21604;-64
2021/05/22 01:50:17;;;;;;;9.40;6.00;;;;;;;8.38;76.64;99475.19;1747521;82;21005;-64
2021/05/22 01:52:46;;;;;;;9.28;5.83;;;;;;;8.49;76.55;99485.02;1744665;82;21076;-63
2021/05/22 01:55:12;;;;;;;9.35;6.08;;;;;;;8.52;76.58;99490.98;1749952;82;21051;-64
2021/05/22 01:57:39;;;;;;;;;;;;;;;8.47;76.85;99479.02;1702735;82;21102;-64
2021/05/22 02:00:08;;;;;;;10.70;6.30;;;;;;;8.41;76.95;99484.69;1744695;81;20156;-63
2021/05/22 02:02:39;;;;;;;11.28;6.12;;;;;;;8.40;77.13;99487.11;1723391;82;21084;-63
2021/05/22 02:05:07;;;;;;;9.25;6.28;;;;;;;8.48;77.02;99485.27;1720959;82;21100;-64
2021/05/22 02:07:34;;;;;;;10.43;6.42;;;;;;;8.48;77.12;99490.16;1740318;82;21067;-64
2021/05/22 02:10:01;;;;;;;11.05;6.65;;;;;;;8.42;77.24;99493.11;1699051;82;21607;-64
2021/05/22 02:12:27;;;;;;;10.53;6.42;;;;;;;8.36;77.40;99490.10;1746528;82;21140;-64
2021/05/22 02:14:55;;;;;;;10.90;6.65;;;;;;;8.40;77.34;99485.76;1742706;82;21088;-64
2021/05/22 02:17:23;;;;;;;;;;;;;;;8.47;77.22;99491.77;1743185;82;21133;-64
2021/05/22 02:19:50;;;;;;;10.45;6.75;;;;;;;8.44;77.26;99493.66;1740192;82;20190;-64
2021/05/22 02:22:21;;;;;;;12.70;7.75;;;;;;;8.31;77.87;99492.23;1745262;82;21104;-63
2021/05/22 02:24:50;;;;;;;11.68;7.28;;;;;;;8.36;77.69;99494.17;1745786;82;21072;-64
2021/05/22 02:27:16;;;;;;;10.70;6.55;;;;;;;8.43;77.43;99496.90;1740521;82;21109;-64
2021/05/22 02:29:44;;;;;;;9.88;6.45;;;;;;;8.43;77.25;99494.19;1740223;82;21089;-64
2021/05/22 02:32:11;;;;;;;9.83;6.08;;;;;;;8.38;77.32;99494.71;1740245;82;21124;-64
2021/05/22 02:34:43;;;;;;;9.30;6.22;;;;;;;8.33;77.44;99495.49;1740576;82;21004;-63
2021/05/22 02:37:09;;;;;;;9.15;5.35;;;;;;;8.37;77.48;99493.07;1741554;82;21685;-63
2021/05/22 02:39:36;;;;;;;11.85;5.85;;;;;;;8.46;77.17;99496.40;1740352;82;21080;-64
2021/05/22 02:42:04;;;;;;;7.78;5.40;;;;;;;8.47;77.03;99497.19;1743308;82;21702;-64
2021/05/22 02:44:30;;;;;;;7.80;5.40;;;;;;;8.42;77.12;99499.36;1740619;82;21069;-64
2021/05/22 02:46:57;;;;;;;9.38;5.33;;;;;;;8.39;77.14;99499.89;1736042;82;21084;-64
2021/05/22 02:49:28;;;;;;;;;;;;;;;8.45;77.00;99511.03;1744486;82;21085;-64
2021/05/22 02:51:56;;;;;;;9.28;5.22;;;;;;;8.57;76.65;99511.37;1744369;82;20616;-63
2021/05/22 02:54:25;;;;;;;7.87;4.90;;;;;;;8.54;76.74;99506.47;1742091;82;21048;-65
2021/05/22 02:56:53;;;;;;;9.58;5.28;;;;;;;8.56;76.73;99520.05;1742137;82;21634;-64
2021/05/22 02:59:19;;;;;;;8.08;6.00;;;;;;;8.59;76.77;99510.55;1743518;82;21057;-64
2021/05/22 03:01:45;;;;;;;10.28;5.28;;;;;;;8.71;76.78;99517.95;1744132;82;21120;-64
2021/05/22 03:04:12;;;;;;;9.65;4.90;;;;;;;8.91;76.57;99512.05;1746633;82;21056;-64
2021/05/22 03:06:38;;;;;;;7.15;4.75;;;;;;;9.05;76.15;99516.97;1749818;82;21067;-64
2021/05/22 03:09:06;;;;;;;8.95;5.33;;;;;;;9.15;75.84;99517.00;1724453;83;21929;-63
2021/05/22 03:11:32;;;;;;;9.20;4.72;;;;;;;9.25;75.16;99521.09;1724667;82;21128;-64
2021/05/22 03:13:59;;;;;;;7.53;4.50;;;;;;;9.43;74.62;99527.38;1694217;82;21615;-64
2021/05/22 03:16:25;;;;;;;;;;;;;;;9.68;74.14;99522.52;1753104;82;21135;-63
2021/05/22 03:18:52;;;;;;;7.33;4.43;;;;;;;9.88;73.65;99526.63;1746599;82;20524;-64
2021/05/22 03:21:18;;;;;;;10.48;4.47;;;;;;;9.98;72.56;99523.36;1748055;81;21037;-64
2021/05/22 03:23:45;;;;;;;6.55;4.80;;;;;;;10.18;72.29;99525.27;1752640;82;21569;-63
2021/05/22 03:26:11;;;;;;;;;;;;;;;10.38;71.86;99529.30;1720889;82;21108;-63
2021/05/22 03:28:38;;;;;;;8.60;4.92;;;;;;;10.64;70.98;99531.96;1745185;82;20189;-62
2021/05/22 03:31:05;;;;;;;8.33;4.28;;;;;;;10.87;70.37;99531.35;1745811;82;21077;-61
2021/05/22 03:33:31;;;;;;;;;;;;;;;11.07;69.91;99533.98;1747545;82;21077;-61
2021/05/22 03:35:57;;;;;;;6.72;4.17;;;;;;;11.28;69.25;99534.14;1747443;82;20184;-62
2021/05/22 03:38:23;;;;;;;8.78;4.55;;;;;;;11.47;67.89;99533.77;1747606;82;21077;-62
2021/05/22 03:40:51;;;;;;;6.92;4.17;;;;;;;11.71;66.98;99531.17;1742313;82;22024;-61
2021/05/22 03:43:17;;;;;;;8.75;4.28;;;;;;;11.95;66.00;99533.98;1748038;82;21077;-62
2021/05/22 03:45:43;;;;;;;7.65;4.05;;;;;;;12.17;65.04;99535.70;1752043;82;21061;-62
2021/05/22 03:48:10;;;;;;;6.30;3.83;;;;;;;12.37;63.99;99539.59;1747207;82;21065;-63
2021/05/22 03:50:37;;;;;;;8.05;3.65;;;;;;;12.59;63.66;99537.73;1748260;82;21580;-62
2021/05/22 03:53:04;;;;;;;5.53;3.30;;;;;;;12.85;63.49;99544.55;1747395;80;21077;-62
2021/05/22 03:55:30;;;;;;;7.12;4.10;;;;;;;13.16;61.96;99545.56;1748511;82;21563;-62
2021/05/22 03:57:57;;;;;;;5.92;3.50;;;;;;;13.38;61.20;99552.65;1751942;80;21136;-63
2021/05/22 04:00:23;;;;;;;6.20;3.65;;;;;;;13.71;61.30;99554.92;1742944;82;21646;-63
2021/05/22 04:02:50;;;;;;;7.47;3.60;;;;;;;14.06;60.30;99565.31;1719555;82;21135;-63
2021/05/22 04:05:16;;;;;;;8.68;4.28;;;;;;;14.33;59.27;99559.91;1739761;81;21021;-62
2021/05/22 04:07:44;;;;;;;7.40;3.70;;;;;;;14.48;58.27;99558.05;1743962;81;21100;-62
2021/05/22 04:10:11;;;;;;;4.25;2.70;;;;;;;14.62;57.88;99559.70;1742195;81;21648;-62
2021/05/22 04:14:09;;;;;;;6.60;3.70;;;;;;;14.84;56.70;99556.27;1776642;79;22876;-62
2021/05/22 04:16:36;;;;;;;7.20;3.65;;;;;;;14.91;56.49;99562.94;1741820;82;21101;-62
2021/05/22 04:19:03;;;;;;;4.47;3.25;;;;;;;15.09;56.08;99563.95;1741271;82;21041;-64
2021/05/22 04:21:30;;;;;;;18.85;5.78;;;;;;;15.25;56.05;99552.94;1742025;82;21060;-62
2021/05/22 04:23:57;;;;;;;11.43;5.22;;;;;;;15.47;55.55;99559.05;1630445;85;21064;-62
2021/05/22 04:26:23;;;;;;;6.65;3.85;;;;;;;15.74;55.40;99556.81;1687163;84;21117;-62
2021/05/22 04:28:50;;;;;;;;;;;;;;;15.96;54.72;99564.27;1669011;84;21115;-62
2021/05/22 04:31:17;;;;;;;5.70;3.00;;;;;;;16.16;54.98;99561.02;1698587;84;20259;-62
2021/05/22 04:33:44;;;;;;;;;;;;;;;16.42;55.11;99562.82;1699185;84;21124;-62
2021/05/22 04:36:10;;;;;;;5.20;3.17;;;;;;;16.82;53.85;99565.65;1736275;82;20197;-61
2021/05/22 04:38:36;;;;;;;;;;;;;;;17.09;53.21;99561.85;1724675;82;21104;-61
2021/05/22 04:41:03;;;;;;;4.35;2.80;;;;;;;17.36;52.86;99559.66;1719765;82;20196;-60
2021/05/22 04:43:30;;;;;;;6.30;3.15;;;;;;;17.50;51.89;99562.27;1677448;84;21124;-61
2021/05/22 04:45:57;;;;;;;6.00;2.75;;;;;;;17.68;51.21;99555.69;1696893;84;21094;-60
2021/05/22 04:48:25;;;;;;;4.37;2.45;;;;;;;17.85;50.95;99567.30;1689212;84;21164;-60
2021/05/22 04:50:54;;;;;;;3.77;2.47;;;;;;;17.95;50.34;99566.16;1657107;85;21040;-61
2021/05/22 04:53:20;;;;;;;6.33;2.92;;;;;;;18.09;50.29;99555.78;1694655;84;21102;-61
2021/05/22 04:55:46;;;;;;;5.40;2.50;;;;;;;18.25;48.84;99556.31;1669341;85;20992;-61
2021/05/22 04:58:12;;;;;;;;;;;;;;;18.32;50.27;99558.56;1692808;84;21124;-61
2021/05/22 05:00:38;;;;;;;4.65;2.17;;;;;;;18.42;49.38;99562.95;1689983;84;20186;-62
2021/05/22 05:03:05;;;;;;;;;;;;;;;18.53;50.57;99567.02;1714592;82;21694;-62
2021/05/22 05:05:31;;;;;;;4.67;2.02;;;;;;;18.87;48.74;99567.70;1696308;84;20179;-59
2021/05/22 05:07:58;;;;;;;4.85;1.98;;;;;;;18.93;46.06;99561.98;1677369;84;21127;-60
2021/05/22 05:10:24;;;;;;;3.47;1.55;;;;;;;18.96;46.28;99562.70;1689650;85;21832;-60
2021/05/22 05:12:52;;;;;;;4.65;1.77;;;;;;;19.04;46.27;99556.34;1691719;83;21096;-60
2021/05/22 05:15:19;;;;;;;3.02;1.70;;;;;;;19.09;45.45;99550.66;1713326;84;21013;-60
2021/05/22 05:17:45;;;;;;;2.95;1.77;;;;;;;19.04;45.55;99555.78;1699142;83;21108;-59
2021/05/22 05:20:13;;;;;;;2.90;1.45;;;;;;;19.11;46.28;99549.17;1686341;84;21647;-60
2021/05/22 05:22:40;;;;;;;3.20;1.72;;;;;;;19.23;44.67;99554.80;1678222;84;21115;-59
2021/05/22 05:25:08;;;;;;;3.95;1.72;;;;;;;19.43;45.83;99546.91;1657714;86;21077;-59
2021/05/22 05:27:34;;;;;;;3.95;1.50;;;;;;;19.65;45.68;99552.93;1687239;84;21126;-61
2021/05/22 05:30:01;;;;;;;2.52;1.60;;;;;;;19.74;43.86;99541.80;1703046;84;21432;-58
2021/05/22 05:32:28;;;;;;;3.60;1.85;;;;;;;19.80;43.72;99559.21;1703981;84;21672;-59
2021/05/22 05:34:54;;;;;;;4.17;1.67;;;;;;;19.75;44.35;99560.81;1704025;84;21082;-61
2021/05/22 05:37:23;;;;;;;2.60;1.60;;;;;;;19.79;44.85;99564.52;1689055;84;21154;-59
2021/05/22 05:39:49;;;;;;;2.33;1.50;;;;;;;19.73;42.83;99571.97;1688702;84;21026;-60
2021/05/22 05:42:16;;;;;;;3.00;1.40;;;;;;;19.61;43.98;99570.50;1672719;84;21104;-59
2021/05/22 05:44:42;;;;;;;2.55;1.35;;;;;;;19.52;44.69;99579.42;1677282;84;21025;-60
2021/05/22 05:47:08;;;;;;;4.22;1.45;;;;;;;19.51;43.90;99570.89;1698383;84;21721;-59
2021/05/22 05:49:35;;;;;;;4.05;1.40;;;;;;;19.70;44.80;99578.14;1698871;84;21137;-63
2021/05/22 05:52:01;;;;;;;2.00;1.30;;;;;;;19.85;43.58;99572.02;1700222;84;21128;-61
2021/05/22 05:54:28;;;;;;;5.08;1.67;;;;;;;19.98;44.17;99568.17;1672322;84;21061;-62
2021/05/22 05:56:54;;;;;;;2.98;1.20;;;;;;;20.16;43.09;99573.78;1696618;84;21104;-62
2021/05/22 05:59:21;;;;;;;6.15;1.40;;;;;;;20.33;43.22;99572.27;1684590;84;21065;-60
2021/05/22 06:01:47;;;;;;;3.25;1.10;;;;;;;20.47;43.34;99583.63;1674452;84;21104;-62
2021/05/22 06:04:13;;;;;;;1.90;0.80;;;;;;;20.64;43.12;99591.73;1689033;84;21619;-61
2021/05/22 06:06:40;;;;;;;1.67;1.07;;;;;;;20.77;40.07;99589.22;1683467;84;21064;-62
2021/05/22 06:09:06;;;;;;;1.80;1.00;;;;;;;20.82;41.21;99593.16;1694188;84;21116;-59
2021/05/22 06:11:35;;;;;;;1.50;0.80;;;;;;;20.79;41.22;99602.97;1688583;84;21667;-59
2021/05/22 06:14:01;;;;;;;1.45;0.80;;;;;;;20.80;39.93;99607.32;1677336;84;21077;-59
2021/05/22 06:16:34;;;;;;;2.35;1.00;;;;;;;20.90;40.34;99614.40;1688455;85;21109;-60
2021/05/22 06:18:59;;;;;;;3.12;0.85;;;;;;;21.05;41.36;99620.63;1684895;85;21627;-60
2021/05/22 06:21:26;;;;;;;3.30;0.90;;;;;;;21.25;39.19;99620.34;1688477;85;21613;-60
2021/05/22 06:23:53;;;;;;;4.37;0.82;;;;;;;21.44;40.67;99622.52;1685824;85;21643;-60
2021/05/22 06:26:19;;;;;;;2.33;0.80;;;;;;;21.66;38.85;99622.87;1673013;85;21069;-61
2021/05/22 06:28:46;;;;;;;6.00;0.80;;;;;;;21.99;39.39;99620.54;1676317;85;21135;-61
2021/05/22 06:31:13;;;;;;;3.05;0.70;;;;;;;22.27;37.93;99613.88;1669398;85;21061;-61
2021/05/22 06:33:40;;;;;;;5.62;1.00;;;;;;;22.35;36.34;99617.66;1667803;85;21682;-61
2021/05/22 06:36:08;;;;;;;1.50;0.50;;;;;;;22.40;36.96;99625.71;1634272;86;21101;-61
2021/05/22 06:38:35;;;;;;;3.37;0.55;;;;;;;22.49;35.49;99633.31;1702595;82;21450;-61
2021/05/22 06:41:02;;;;;;;3.40;0.80;;;;;;;22.44;33.93;99623.04;1727826;82;21053;-62
2021/05/22 06:43:28;;;;;;;1.52;0.57;;;;;;;22.42;35.42;99630.92;1662649;86;21064;-62
2021/05/22 06:46:03;;;;;;;3.12;0.70;;;;;;;22.53;35.72;99630.04;1676418;84;21584;-62
2021/05/22 06:48:27;;;;;;;5.20;1.07;;;;;;;22.63;36.23;99629.55;1709528;82;21105;-61
2021/05/22 06:50:55;;;;;;;7.65;2.37;;;;;;;22.73;33.64;99624.91;1712819;82;21044;-63
2021/05/22 06:53:22;;;;;;;2.47;0.70;;;;;;;22.75;34.36;99627.30;1662473;86;21926;-62
2021/05/22 06:55:49;;;;;;;2.80;0.65;;;;;;;22.83;33.82;99624.14;1674895;86;21069;-62
2021/05/22 06:58:17;;;;;;;1.70;0.50;;;;;;;22.81;33.59;99622.52;1721704;82;21124;-61
2021/05/22 07:00:44;;;;;;;1.72;0.60;;;;;;;22.89;33.26;99619.36;1713117;82;21422;-62
2021/05/22 07:03:10;;;;;;;2.50;0.72;;;;;;;22.97;33.42;99610.64;1737591;82;21105;-62
2021/05/22 07:05:36;;;;;;;1.98;0.50;;;;;;;23.04;33.41;99613.03;1719508;82;21100;-62
2021/05/22 07:08:04;;;;;;;0.95;0.42;;;;;;;23.18;34.40;99614.78;1737223;82;21070;-62
2021/05/22 07:10:31;;;;;;;1.17;0.50;;;;;;;23.28;32.68;99612.84;1675161;82;20989;-61
2021/05/22 07:12:57;;;;;;;1.62;0.57;;;;;;;23.39;32.97;99610.91;1738671;81;21208;-61
2021/05/22 07:15:24;;;;;;;5.30;0.50;;;;;;;23.43;32.41;99602.11;1726959;82;21009;-62
2021/05/22 07:17:50;;;;;;;4.40;0.70;;;;;;;23.44;32.05;99603.16;1706335;83;21076;-63
2021/05/22 07:20:18;;;;;;;1.47;0.53;;;;;;;23.46;32.87;99607.75;1680117;85;21044;-61
2021/05/22 07:22:45;;;;;;;1.75;0.57;;;;;;;23.47;33.13;99600.23;1670284;84;21457;-62
2021/05/22 07:25:11;;;;;;;2.67;0.72;;;;;;;23.56;33.17;99600.25;1672048;85;21025;-61
2021/05/22 07:27:38;;;;;;;1.20;0.70;;;;;;;23.73;32.69;99600.46;1692464;84;21803;-62
2021/05/22 07:30:08;;;;;;;2.47;1.10;;;;;;;23.76;32.97;99602.52;1740184;82;21052;-61
2021/05/22 07:32:36;;;;;;;2.62;0.70;;;;;;;23.82;33.24;99600.23;1746011;82;21069;-62
2021/05/22 07:35:04;;;;;;;1.60;0.60;;;;;;;23.91;33.72;99602.25;1745929;82;21041;-62
2021/05/22 07:37:31;;;;;;;1.67;0.90;;;;;;;;;;1730504;82;21182;-59
2021/05/22 07:39:57;;;;;;;2.80;0.75;;;;;;;24.23;35.15;99589.87;1727666;82;21591;-62
2021/05/22 07:42:25;;;;;;;2.20;0.90;;;;;;;24.46;32.61;99599.07;1734153;81;21052;-62
2021/05/22 07:44:52;;;;;;;6.12;1.20;;;;;;;24.76;31.53;99593.69;1673822;85;21109;-61
2021/05/22 07:47:19;;;;;;;2.55;0.60;;;;;;;24.76;31.53;99593.69;1676505;85;21112;-61
2021/05/22 07:49:46;;;;;;;3.40;1.00;;;;;;;24.67;30.41;99588.34;1686656;84;21080;-61
2021/05/22 07:52:13;;;;;;;4.00;0.88;;;;;;;24.34;31.77;99587.30;1684318;84;21184;-61
2021/05/22 07:54:42;;;;;;;4.80;0.80;;;;;;;24.34;31.77;99587.30;1682579;84;21085;-61
2021/05/22 07:57:09;;;;;;;2.35;1.00;;;;;;;24.33;32.25;99585.69;1651538;86;21119;-62
2021/05/22 07:59:37;;;;;;;2.52;0.70;;;;;;;24.39;32.62;99585.59;1724964;82;21080;-60
2021/05/22 08:02:04;;;;;;;1.82;0.62;;;;;;;24.40;30.99;99585.25;1702352;82;21651;-61
2021/05/22 08:04:31;;;;;;;6.17;0.82;;;;;;;24.40;32.40;99590.00;1716623;82;21065;-61
2021/05/22 08:06:57;;;;;;;4.50;0.70;;;;;;;24.41;32.24;99592.39;1678347;85;21651;-61
2021/05/22 08:09:24;;;;;;;1.82;0.60;;;;;;;24.26;32.25;99587.16;1672803;84;21065;-61
2021/05/22 08:11:50;;;;;;;1.95;0.57;;;;;;;24.12;33.07;99586.83;1728017;82;21089;-61
2021/05/22 08:14:17;;;;;;;3.27;0.57;;;;;;;23.82;31.74;99591.32;1731838;81;21053;-61
2021/05/22 08:16:44;;;;;;;3.47;0.90;;;;;;;23.44;32.31;99585.67;1710659;82;21077;-61
2021/05/22 08:19:13;;;;;;;2.60;0.90;;;;;;;23.11;33.18;99584.05;1717394;82;21632;-61
2021/05/22 08:21:40;;;;;;;3.35;1.00;;;;;;;22.80;33.61;99580.70;1712661;82;21069;-60
2021/05/22 08:24:08;;;;;;;4.12;1.20;;;;;;;22.64;35.05;99583.17;1730663;82;21092;-60
2021/05/22 08:26:37;;;;;;;2.72;1.07;;;;;;;22.55;35.60;99581.16;1726433;82;21644;-60
2021/05/22 08:29:05;;;;;;;4.15;1.05;;;;;;;22.58;35.33;99574.31;1713445;82;21057;-60
2021/05/22 08:31:32;;;;;;;2.92;0.70;;;;;;;22.64;35.58;99563.17;1715560;82;21112;-60
2021/05/22 08:33:59;;;;;;;4.03;0.65;;;;;;;22.80;35.17;99562.66;1726261;82;21085;-60
2021/05/22 08:36:27;;;;;;;4.05;0.75;;;;;;;23.03;34.86;99553.69;1719323;82;21097;-61
2021/05/22 08:38:53;;;;;;;2.37;0.70;;;;;;;23.17;32.59;99554.84;1728834;82;21081;-60
2021/05/22 08:41:20;;;;;;;3.65;0.95;;;;;;;23.22;32.67;99552.39;1713332;82;21049;-60
2021/05/22 08:43:48;;;;;;;2.85;0.88;;;;;;;23.17;31.71;99554.84;1711606;82;21080;-60
2021/05/22 08:46:21;;;;;;;2.47;0.95;;;;;;;23.16;32.16;99557.42;1649107;86;21061;-60
2021/05/22 08:48:43;;;;;;;1.80;0.62;;;;;;;23.15;33.45;99559.97;1725746;82;21195;-60
2021/05/22 08:51:09;;;;;;;1.60;0.50;;;;;;;23.25;32.42;99558.61;1731255;82;21049;-60
2021/05/22 08:53:36;;;;;;;4.90;0.78;;;;;;;23.37;33.72;99559.90;1721044;82;21104;-61
2021/05/22 08:56:04;;;;;;;2.67;0.85;;;;;;;23.38;29.53;99551.80;1647013;86;21089;-61
2021/05/22 08:58:31;;;;;;;2.60;0.82;;;;;;;23.41;31.90;99553.04;1713172;82;21049;-61
2021/05/22 09:00:57;;;;;;;3.50;1.00;;;;;;;23.49;31.87;99557.02;1721079;82;21029;-62
2021/05/22 09:03:24;;;;;;;6.67;1.05;;;;;;;23.60;31.00;99550.32;1723808;82;21909;-62
2021/05/22 09:05:50;;;;;;;3.87;2.65;;;;;;;23.67;32.73;99554.06;1643601;86;21028;-63
2021/05/22 09:08:17;;;;;;;4.80;0.80;;;;;;;23.69;31.50;99550.36;1697439;84;21647;-61
2021/05/22 09:10:47;;;;;;;4.17;1.05;;;;;;;23.81;30.80;99552.17;1673975;84;21040;-61
2021/05/22 09:13:23;;;;;;;3.60;0.70;;;;;;;23.89;30.70;99535.07;1677452;85;21651;-61
2021/05/22 09:16:02;;;;;;;;;;;;;;;23.92;30.73;99539.90;1649658;86;20997;-61
2021/05/22 09:18:36;;;;;;;3.72;0.70;;;;;;;23.91;30.73;99535.53;1689300;84;20175;-62
2021/05/22 09:21:06;;;;;;;4.60;0.60;;;;;;;23.63;30.85;99517.66;1724206;82;21019;-62
2021/05/22 09:23:39;;;;;;;1.80;0.68;;;;;;;23.87;31.92;99537.42;1656550;86;21013;-62
2021/05/22 09:26:14;;;;;;;5.62;1.52;;;;;;;24.08;31.44;99530.92;1725091;82;21029;-62
2021/05/22 09:28:50;;;;;;;3.42;0.70;;;;;;;24.18;31.82;99533.94;1737549;82;21953;-62
2021/05/22 09:31:19;;;;;;;1.57;0.50;;;;;;;24.26;30.15;99526.55;1718400;82;21034;-62
2021/05/22 09:33:45;;;;;;;1.87;0.60;;;;;;;24.34;29.83;99522.71;1644442;86;21755;-62
2021/05/22 09:36:15;;;;;;;3.35;1.00;;;;;;;24.28;30.26;99516.66;1710247;82;21010;-62
2021/05/22 09:38:55;;;;;;;4.70;0.70;;;;;;;24.24;29.67;99526.09;1709157;82;21554;-61
2021/05/22 09:41:34;;;;;;;2.47;0.70;;;;;;;24.27;32.00;99531.73;1718879;82;21156;-62
2021/05/22 09:44:17;;;;;;;4.90;0.62;;;;;;;24.23;29.91;99543.36;1719928;82;21021;-62
2021/05/22 09:46:50;;;;;;;1.87;0.57;;;;;;;24.24;29.47;99526.09;1712772;82;21081;-62
2021/05/22 09:49:28;;;;;;;1.32;0.62;;;;;;;24.10;28.76;99527.17;1661197;86;21694;-61
2021/05/22 09:52:04;;;;;;;5.12;1.10;;;;;;;24.06;30.43;99520.15;1726515;82;21073;-61
2021/05/22 09:54:51;;;;;;;;;;;;;;;23.99;29.80;99504.72;1664261;86;21069;-62
2021/05/22 09:57:35;;;;;;;1.15;0.70;;;;;;;24.02;30.06;99500.42;1669787;86;20162;-61
2021/05/22 10:00:15;;;;;;;2.00;0.85;;;;;;;24.13;30.58;99493.91;1669773;85;21652;-61
2021/05/22 10:03:01;;;;;;;1.65;0.68;;;;;;;24.26;31.68;99494.56;1669843;86;21112;-61
2021/05/22 10:05:33;;;;;;;2.12;0.70;;;;;;;24.25;30.03;99485.41;1682903;84;21204;-62
2021/05/22 10:08:03;;;;;;;1.67;1.00;;;;;;;24.36;30.17;99494.53;1708214;82;21479;-60
2021/05/22 10:10:46;;;;;;;1.15;0.60;;;;;;;24.38;29.57;99492.98;1727253;82;21068;-62
2021/05/22 10:13:15;;;;;;;2.27;0.82;;;;;;;24.47;29.59;99489.39;1722407;82;21073;-61
2021/05/22 10:15:42;;;;;;;3.70;0.70;;;;;;;24.50;29.63;99480.88;1738825;81;21638;-61
2021/05/22 10:18:09;;;;;;;1.72;0.60;;;;;;;24.43;28.61;99474.61;1734356;82;21107;-61
2021/05/22 10:20:37;;;;;;;1.85;0.55;;;;;;;24.37;28.14;99474.70;1721068;83;21634;-61
2021/05/22 10:23:06;;;;;;;1.37;0.75;;;;;;;24.21;29.11;99462.28;1723833;82;21108;-62
2021/05/22 10:25:32;;;;;;;1.70;0.85;;;;;;;24.19;28.65;99471.59;1683884;85;21097;-60
2021/05/22 10:28:00;;;;;;;1.90;0.80;;;;;;;24.16;29.26;99468.75;1732548;82;21087;-61
2021/05/22 10:30:26;;;;;;;2.02;0.80;;;;;;;24.11;28.68;99458.69;1744160;82;21072;-61
2021/05/22 10:33:01;;;;;;;1.05;0.50;;;;;;;24.01;30.29;99468.22;1703424;82;21088;-61
2021/05/22 10:35:28;;;;;;;3.10;0.70;;;;;;;24.05;30.66;99464.34;1747686;82;21128;-61
2021/05/22 10:37:57;;;;;;;3.00;0.70;;;;;;;24.20;29.43;99462.64;1724277;82;21939;-61
2021/05/22 10:40:46;;;;;;;2.08;0.70;;;;;;;24.25;28.85;99446.47;1677185;84;21212;-60
2021/05/22 10:43:13;;;;;;;2.20;0.80;;;;;;;24.07;28.65;99446.69;1699278;84;21093;-61
2021/05/22 10:45:42;;;;;;;2.10;0.47;;;;;;;23.96;29.76;99445.68;1735061;82;21061;-60
2021/05/22 10:48:17;;;;;;;1.20;0.50;;;;;;;23.87;30.21;99449.28;1725011;82;21072;-61
2021/05/22 10:50:49;;;;;;;2.60;0.60;;;;;;;23.73;30.18;99444.83;1667876;85;21568;-60
2021/05/22 10:53:28;;;;;;;3.27;0.70;;;;;;;23.89;30.69;99436.39;1721643;83;21088;-61
2021/05/22 10:56:15;;;;;;;1.57;0.65;;;;;;;24.09;29.54;99437.38;1741396;82;21104;-59
2021/05/22 10:59:09;;;;;;;1.20;0.50;;;;;;;24.25;29.80;99442.30;1751583;82;21080;-58
2021/05/22 11:01:41;;;;;;;3.33;0.70;;;;;;;24.30;28.92;99428.69;1748325;82;21080;-63
2021/05/22 11:04:17;;;;;;;5.37;0.70;;;;;;;24.20;29.62;99425.91;1722364;83;21053;-63
2021/05/22 11:06:50;;;;;;;3.10;0.60;;;;;;;24.15;28.79;99430.98;1723177;82;21092;-64
2021/05/22 11:09:36;;;;;;;2.12;0.40;;;;;;;24.17;29.42;99430.82;1730050;82;21136;-64
2021/05/22 11:12:14;;;;;;;1.70;0.50;;;;;;;24.15;27.63;99426.23;1733065;82;21108;-64
2021/05/22 11:14:44;;;;;;;1.05;0.50;;;;;;;23.99;28.73;99420.50;1641008;86;21096;-64
2021/05/22 11:17:26;;;;;;;2.92;0.90;;;;;;;23.87;29.32;99408.98;1716162;82;21095;-64
2021/05/22 11:20:09;;;;;;;4.08;0.80;;;;;;;23.92;31.68;99404.49;1715795;82;21618;-63
2021/05/22 11:22:45;;;;;;;3.12;0.88;;;;;;;24.06;30.90;99417.27;1644528;86;21446;-64
2021/05/22 11:25:14;;;;;;;1.45;0.78;;;;;;;24.19;30.19;99415.17;1671443;84;21054;-64
2021/05/22 11:28:01;;;;;;;4.33;0.98;;;;;;;24.35;29.23;99410.86;1670285;84;21645;-64
2021/05/22 11:30:36;;;;;;;2.10;0.75;;;;;;;24.33;29.02;99406.27;1721236;82;21044;-64
2021/05/22 11:33:10;;;;;;;2.98;0.70;;;;;;;24.45;29.16;99413.02;1736350;82;21083;-65
2021/05/22 11:35:46;;;;;;;2.95;0.65;;;;;;;24.52;28.59;99415.33;1645610;86;21979;-63
2021/05/22 11:38:26;;;;;;;4.75;0.60;;;;;;;24.55;29.51;99409.02;1692157;84;21092;-63
2021/05/22 11:40:53;;;;;;;2.27;0.70;;;;;;;24.52;28.39;99415.91;1696087;84;21691;-63
2021/05/22 11:43:28;;;;;;;3.92;1.00;;;;;;;24.28;28.07;99408.77;1687455;84;21076;-63
2021/05/22 11:45:58;;;;;;;7.30;3.10;;;;;;;24.15;29.54;99415.11;1668844;86;21386;-64
2021/05/22 11:48:35;;;;;;;6.87;2.50;;;;;;;24.21;29.90;99408.05;1668215;86;21645;-63
2021/05/22 11:51:15;;;;;;;14.68;7.15;;;;;;;24.20;29.52;99413.39;1677062;84;21071;-63